Time;durP1;ratioP1;P1;durP2;ratioP2;P2;SDS_P1;SDS_P2;PMS_P1;PMS_P2;Temp;Humidity;BMP_temperature;BMP_pressure;BME280_temperature;BME280_humidity;BME280_pressure;Samples;Min_cycle;Max_cycle;Signal;HPM_P1;HPM_P2
2023/12/19 00:00:11;;;;;;;11.67;5.03;;;;;;;5.95;100.00;101734.97;6023938;28;20285;-73
2023/12/19 00:03:06;;;;;;;11.30;5.40;;;;;;;5.93;100.00;101720.22;6024614;28;20033;-73
2023/12/19 00:06:02;;;;;;;11.30;5.57;;;;;;;5.94;100.00;101720.16;6024718;28;20058;-73
2023/12/19 00:08:57;;;;;;;11.23;5.00;;;;;;;5.92;100.00;101708.00;6022601;28;20261;-73
2023/12/19 00:11:52;;;;;;;10.67;5.20;;;;;;;5.94;100.00;101706.97;6023427;28;20678;-74
2023/12/19 00:14:48;;;;;;;11.57;5.00;;;;;;;5.95;100.00;101692.88;6006318;28;20124;-73
2023/12/19 00:17:43;;;;;;;11.47;5.53;;;;;;;5.98;100.00;101703.22;6024102;28;20121;-73
2023/12/19 00:20:38;;;;;;;11.60;5.33;;;;;;;5.94;100.00;101712.25;6024694;28;20427;-72
2023/12/19 00:23:34;;;;;;;10.30;5.63;;;;;;;5.96;100.00;101694.56;6022365;28;20473;-73
2023/12/19 00:26:29;;;;;;;11.43;4.70;;;;;;;5.98;100.00;101666.34;6023424;28;20085;-73
2023/12/19 00:29:24;;;;;;;11.47;5.63;;;;;;;5.99;100.00;101707.56;6024880;28;20595;-73
2023/12/19 00:32:20;;;;;;;11.07;5.82;;;;;;;5.95;100.00;101708.66;6039394;28;20026;-72
2023/12/19 00:35:15;;;;;;;14.50;6.00;;;;;;;5.97;100.00;101738.41;6023595;28;20043;-72
2023/12/19 00:38:10;;;;;;;11.43;5.77;;;;;;;6.07;100.00;101751.00;6024163;28;20022;-73
2023/12/19 00:41:05;;;;;;;12.13;5.70;;;;;;;5.96;100.00;101707.72;6023897;28;20528;-73
2023/12/19 00:44:01;;;;;;;11.73;5.23;;;;;;;6.08;100.00;101752.69;6036469;28;20038;-73
2023/12/19 00:46:57;;;;;;;12.40;5.50;;;;;;;5.99;100.00;101720.72;6024388;28;20113;-73
2023/12/19 00:49:52;;;;;;;12.10;5.77;;;;;;;5.97;100.00;101709.44;6024316;28;20053;-73
2023/12/19 00:52:47;;;;;;;9.67;5.13;;;;;;;6.01;100.00;101717.16;6022735;28;20292;-74
2023/12/19 00:55:43;;;;;;;13.50;5.60;;;;;;;6.06;100.00;101730.88;6023636;28;20053;-74
2023/12/19 00:58:39;;;;;;;11.40;5.03;;;;;;;6.05;100.00;101721.28;6027969;28;20030;-71
2023/12/19 01:01:35;;;;;;;12.50;5.65;;;;;;;5.98;100.00;101718.16;6031518;28;20128;-73
2023/12/19 01:04:30;;;;;;;10.77;4.53;;;;;;;6.03;100.00;101725.78;6034387;28;20795;-74
2023/12/19 01:07:26;;;;;;;10.30;5.13;;;;;;;6.05;100.00;101739.72;6033698;28;20076;-71
2023/12/19 01:10:21;;;;;;;13.43;5.22;;;;;;;6.07;100.00;101732.56;6035149;28;20029;-72
2023/12/19 01:13:17;;;;;;;12.50;6.10;;;;;;;5.98;100.00;101719.00;6029486;28;20041;-73
2023/12/19 01:16:13;;;;;;;13.13;5.57;;;;;;;6.02;100.00;101729.34;6033694;28;20114;-74
2023/12/19 01:19:09;;;;;;;14.40;5.80;;;;;;;5.99;100.00;101730.38;6034625;28;20033;-73
2023/12/19 01:22:05;;;;;;;14.32;6.03;;;;;;;5.92;100.00;101735.16;6034140;28;20103;-72
2023/12/19 01:25:00;;;;;;;14.63;6.27;;;;;;;5.93;100.00;101731.59;6031297;28;20023;-73
2023/12/19 01:27:56;;;;;;;11.93;5.70;;;;;;;5.95;100.00;101750.78;6030802;28;20034;-73
2023/12/19 01:30:51;;;;;;;17.20;7.53;;;;;;;5.87;100.00;101737.22;6029195;28;20147;-73
2023/12/19 01:33:46;;;;;;;16.57;6.90;;;;;;;5.73;100.00;101717.91;6030783;28;20026;-73
2023/12/19 01:36:42;;;;;;;14.30;6.33;;;;;;;5.73;100.00;101733.69;6033676;28;20122;-73
2023/12/19 01:39:37;;;;;;;13.10;6.95;;;;;;;5.66;100.00;101724.44;6034207;28;20266;-72
2023/12/19 01:42:32;;;;;;;13.50;6.37;;;;;;;5.68;100.00;101704.19;6034636;28;20076;-73
2023/12/19 01:45:29;;;;;;;18.23;7.10;;;;;;;5.70;100.00;101711.03;6029634;28;20076;-73
2023/12/19 01:48:25;;;;;;;15.20;6.45;;;;;;;5.70;100.00;101718.94;6033944;28;20088;-73
2023/12/19 01:51:21;;;;;;;15.95;6.63;;;;;;;5.69;100.00;101709.34;6026280;28;20030;-72
2023/12/19 01:54:17;;;;;;;15.52;6.55;;;;;;;5.72;100.00;101703.91;6033605;28;20053;-73
2023/12/19 01:57:12;;;;;;;14.10;6.15;;;;;;;5.77;100.00;101696.56;6031659;28;20030;-73
2023/12/19 02:00:08;;;;;;;14.00;6.60;;;;;;;5.64;100.00;101677.19;6034747;28;20037;-73
2023/12/19 02:03:04;;;;;;;16.63;7.55;;;;;;;5.64;100.00;101692.97;6033001;28;20030;-71
2023/12/19 02:06:00;;;;;;;15.70;7.25;;;;;;;5.67;100.00;101705.97;6028638;28;20405;-72
2023/12/19 02:08:55;;;;;;;17.45;7.38;;;;;;;5.70;100.00;101689.13;6031992;28;20038;-73
2023/12/19 02:11:50;;;;;;;17.23;7.57;;;;;;;5.68;100.00;101668.16;6031346;28;20040;-74
2023/12/19 02:14:46;;;;;;;16.87;7.57;;;;;;;5.66;100.00;101667.41;6031640;28;20037;-73
2023/12/19 02:17:42;;;;;;;18.17;8.10;;;;;;;5.71;100.00;101681.13;6031155;28;20042;-73
2023/12/19 02:20:37;;;;;;;17.80;6.70;;;;;;;5.73;100.00;101679.28;6029336;28;20100;-73
2023/12/19 02:23:32;;;;;;;15.97;7.27;;;;;;;5.70;100.00;101645.25;6032040;28;20273;-74
2023/12/19 02:26:31;;;;;;;14.83;6.97;;;;;;;5.70;100.00;101650.53;6031367;28;20053;-72
2023/12/19 02:29:26;;;;;;;16.60;7.28;;;;;;;5.69;100.00;101659.34;6030280;28;20098;-73
2023/12/19 02:32:21;;;;;;;13.30;6.70;;;;;;;5.74;100.00;101652.03;6025534;28;20033;-74
2023/12/19 02:35:17;;;;;;;13.47;6.00;;;;;;;5.75;100.00;101658.97;6030811;28;20385;-73
2023/12/19 02:38:12;;;;;;;13.40;6.27;;;;;;;5.72;100.00;101643.38;6031016;28;20258;-74
2023/12/19 02:41:10;;;;;;;15.10;6.47;;;;;;;5.82;100.00;101649.78;6032780;28;20401;-74
2023/12/19 02:44:05;;;;;;;14.23;6.35;;;;;;;5.85;100.00;101659.28;6024010;28;20044;-72
2023/12/19 02:47:00;;;;;;;13.90;6.40;;;;;;;5.81;100.00;101642.84;6029948;28;20034;-72
2023/12/19 02:49:56;;;;;;;12.70;6.27;;;;;;;5.84;100.00;101639.16;6046182;28;20389;-72
2023/12/19 02:52:51;;;;;;;11.80;5.43;;;;;;;5.76;100.00;101608.03;6026732;28;20362;-73
2023/12/19 02:55:46;;;;;;;14.13;5.70;;;;;;;5.82;100.00;101620.81;6028291;28;20053;-73
2023/12/19 02:58:42;;;;;;;12.77;6.17;;;;;;;5.78;100.00;101616.69;6031034;28;20265;-73
2023/12/19 03:01:37;;;;;;;15.32;5.90;;;;;;;5.85;100.00;101623.31;6044265;28;20036;-73
2023/12/19 03:04:32;;;;;;;9.73;5.20;;;;;;;5.84;100.00;101611.03;6029257;28;20049;-73
2023/12/19 03:07:28;;;;;;;12.67;6.47;;;;;;;5.83;100.00;101612.00;6029546;28;20628;-72
2023/12/19 03:10:23;;;;;;;10.10;5.57;;;;;;;5.89;100.00;101610.81;6030328;28;20029;-73
2023/12/19 03:13:18;;;;;;;11.55;5.65;;;;;;;5.89;100.00;101603.78;6028387;28;20030;-72
2023/12/19 03:16:14;;;;;;;8.70;4.70;;;;;;;5.89;100.00;101587.97;6030887;28;20037;-73
2023/12/19 03:19:09;;;;;;;11.20;5.90;;;;;;;5.90;100.00;101579.13;6029814;28;20353;-73
2023/12/19 03:22:05;;;;;;;11.47;5.73;;;;;;;5.93;100.00;101573.66;6029058;28;20038;-73
2023/12/19 03:25:00;;;;;;;11.52;5.50;;;;;;;5.99;100.00;101578.56;6024804;28;20030;-73
2023/12/19 03:27:55;;;;;;;10.73;4.97;;;;;;;5.95;100.00;101573.59;6029903;28;20037;-73
2023/12/19 03:30:51;;;;;;;12.03;5.60;;;;;;;5.95;100.00;101563.88;6026427;28;20948;-74
2023/12/19 03:33:46;;;;;;;11.82;4.95;;;;;;;5.98;100.00;101568.09;6024200;28;20034;-74
2023/12/19 03:36:44;;;;;;;10.17;4.93;;;;;;;5.97;100.00;101563.81;6030003;28;20027;-74
2023/12/19 03:39:40;;;;;;;10.60;5.43;;;;;;;6.01;100.00;101569.72;6027181;28;20262;-73
2023/12/19 03:42:35;;;;;;;14.00;6.70;;;;;;;5.97;100.00;101579.59;6030320;28;20026;-72
2023/12/19 03:45:30;;;;;;;12.87;6.50;;;;;;;5.93;100.00;101581.56;6024674;28;20485;-74
2023/12/19 03:48:26;;;;;;;11.43;6.10;;;;;;;5.91;100.00;101586.09;6029451;28;20258;-72
2023/12/19 03:51:21;;;;;;;11.57;6.03;;;;;;;5.95;100.00;101582.31;6028251;28;20041;-72
2023/12/19 03:54:16;;;;;;;12.80;6.30;;;;;;;5.96;100.00;101573.47;6029707;28;20504;-74
2023/12/19 03:57:12;;;;;;;13.60;6.60;;;;;;;5.97;100.00;101579.59;6034527;28;20053;-73
2023/12/19 04:00:08;;;;;;;11.13;5.68;;;;;;;5.98;100.00;101565.47;6009938;28;20482;-73
2023/12/19 04:03:04;;;;;;;11.65;4.97;;;;;;;5.97;100.00;101551.50;6028847;28;20027;-72
2023/12/19 04:05:59;;;;;;;11.10;5.50;;;;;;;5.91;100.00;101548.38;6026805;28;20026;-73
2023/12/19 04:08:54;;;;;;;11.40;5.73;;;;;;;5.97;100.00;101551.50;6029389;28;20030;-74
2023/12/19 04:11:50;;;;;;;10.70;5.30;;;;;;;5.97;100.00;101542.75;6029375;28;20546;-73
2023/12/19 04:14:45;;;;;;;10.57;5.90;;;;;;;6.02;100.00;101552.97;6010710;28;20048;-73
2023/12/19 04:17:40;;;;;;;9.77;5.00;;;;;;;6.03;100.00;101546.78;6027038;28;20277;-73
2023/12/19 04:20:36;;;;;;;12.03;5.70;;;;;;;5.98;100.00;101523.34;6027502;28;20461;-73
2023/12/19 04:23:31;;;;;;;12.25;5.70;;;;;;;5.96;100.00;101517.34;6029087;28;20289;-73
2023/12/19 04:26:27;;;;;;;13.33;5.60;;;;;;;6.01;100.00;101514.44;6026597;28;20034;-73
2023/12/19 04:29:22;;;;;;;12.50;5.37;;;;;;;5.96;100.00;101510.31;6027397;28;20026;-74
2023/12/19 04:32:18;;;;;;;8.63;4.72;;;;;;;5.96;100.00;101515.56;6026799;28;20038;-73
2023/12/19 04:35:13;;;;;;;8.50;4.70;;;;;;;5.96;100.00;101498.94;6008976;28;20497;-73
2023/12/19 04:38:09;;;;;;;11.65;5.28;;;;;;;5.91;100.00;101480.81;6030905;28;20033;-73
2023/12/19 04:41:04;;;;;;;12.70;6.13;;;;;;;5.91;100.00;101487.84;6033708;28;20034;-74
2023/12/19 04:43:59;;;;;;;13.20;4.88;;;;;;;5.91;100.00;101467.63;6031130;28;20023;-73
2023/12/19 04:46:55;;;;;;;11.63;5.27;;;;;;;5.93;100.00;101476.28;6031285;28;20113;-72
2023/12/19 04:49:51;;;;;;;11.17;5.80;;;;;;;5.83;100.00;101461.13;6031394;28;20040;-73
2023/12/19 04:52:46;;;;;;;12.88;6.43;;;;;;;5.95;100.00;101486.72;6031354;28;20038;-73
2023/12/19 04:55:42;;;;;;;12.73;5.80;;;;;;;5.91;100.00;101485.22;6030488;28;20104;-73
2023/12/19 04:58:40;;;;;;;11.37;5.73;;;;;;;5.88;100.00;101486.25;6032664;28;20034;-74
2023/12/19 05:01:40;;;;;;;10.13;5.63;;;;;;;5.91;100.00;101485.22;6032721;28;20030;-73
2023/12/19 05:04:35;;;;;;;13.02;5.38;;;;;;;5.91;100.00;101486.06;6028802;28;20035;-74
2023/12/19 05:07:32;;;;;;;10.45;5.57;;;;;;;5.90;100.00;101468.56;6031135;28;20030;-73
2023/12/19 05:10:27;;;;;;;12.45;5.53;;;;;;;5.97;100.00;101483.06;6031965;28;20490;-73
2023/12/19 05:13:22;;;;;;;12.70;6.37;;;;;;;5.94;100.00;101483.25;6028176;28;20029;-72
2023/12/19 05:16:18;;;;;;;12.23;5.53;;;;;;;5.95;100.00;101492.81;6031595;28;20764;-74
2023/12/19 05:19:13;;;;;;;12.48;5.43;;;;;;;5.95;100.00;101477.00;6029888;28;20039;-73
2023/12/19 05:22:09;;;;;;;11.85;5.60;;;;;;;5.95;100.00;101469.13;6005884;28;20042;-72
2023/12/19 05:25:06;;;;;;;9.65;5.30;;;;;;;6.04;100.00;101461.56;6045965;28;20437;-73
2023/12/19 05:28:01;;;;;;;14.55;5.97;;;;;;;6.01;100.00;101459.16;6030665;28;20031;-73
2023/12/19 05:30:57;;;;;;;9.93;4.90;;;;;;;5.85;100.00;101446.97;6031301;28;20053;-74
2023/12/19 05:33:52;;;;;;;12.98;6.28;;;;;;;5.89;100.00;101471.31;6045565;28;20054;-73
2023/12/19 05:36:47;;;;;;;10.70;5.80;;;;;;;5.84;100.00;101473.38;6031119;28;20112;-73
2023/12/19 05:39:43;;;;;;;9.33;5.23;;;;;;;5.79;100.00;101475.41;6032520;28;20065;-73
2023/12/19 05:42:38;;;;;;;9.90;4.80;;;;;;;5.83;100.00;101469.88;6043813;28;20583;-73
2023/12/19 05:45:34;;;;;;;12.20;4.53;;;;;;;5.75;100.00;101452.88;6034194;28;20076;-73
2023/12/19 05:48:29;;;;;;;9.52;4.97;;;;;;;5.85;100.00;101460.13;6032184;28;20284;-73
2023/12/19 05:51:24;;;;;;;9.50;4.57;;;;;;;5.88;100.00;101420.47;6035895;28;20027;-73
2023/12/19 05:54:19;;;;;;;13.20;4.90;;;;;;;5.76;100.00;101391.44;6040533;28;20453;-73
2023/12/19 05:57:15;;;;;;;12.37;6.30;;;;;;;5.75;100.00;101392.38;6043542;28;20022;-73
2023/12/19 06:00:11;;;;;;;13.87;6.23;;;;;;;5.73;100.00;101400.38;6039624;28;20042;-73
2023/12/19 06:03:06;;;;;;;10.75;5.07;;;;;;;5.63;100.00;101396.63;6036171;28;20026;-73
2023/12/19 06:06:01;;;;;;;12.27;5.57;;;;;;;5.52;100.00;101398.25;6036317;28;20018;-74
2023/12/19 06:08:56;;;;;;;11.70;5.43;;;;;;;5.51;100.00;101415.81;6036062;28;20038;-72
2023/12/19 06:11:52;;;;;;;12.27;6.00;;;;;;;5.39;100.00;101387.66;6030988;28;20034;-74
2023/12/19 06:14:47;;;;;;;17.10;6.70;;;;;;;5.29;100.00;101378.66;6046764;28;20327;-73
2023/12/19 06:17:43;;;;;;;13.65;6.40;;;;;;;5.26;100.00;101382.31;6042207;28;20037;-74
2023/12/19 06:20:40;;;;;;;15.57;6.47;;;;;;;5.22;100.00;101390.47;6040669;28;20032;-74
2023/12/19 06:23:35;;;;;;;14.70;5.72;;;;;;;5.21;100.00;101394.06;6033882;28;20037;-72
2023/12/19 06:26:34;;;;;;;15.40;7.03;;;;;;;5.16;100.00;101396.16;6042970;28;20062;-73
2023/12/19 06:29:29;;;;;;;13.32;6.90;;;;;;;5.14;100.00;101406.72;6029549;28;20120;-73
2023/12/19 06:32:24;;;;;;;15.33;6.10;;;;;;;5.17;100.00;101409.19;6037778;28;20030;-73
2023/12/19 06:35:19;;;;;;;14.17;5.90;;;;;;;5.15;100.00;101389.19;6037860;28;20034;-73
2023/12/19 06:38:15;;;;;;;16.30;7.17;;;;;;;5.22;100.00;101393.97;6047109;28;20102;-72
2023/12/19 06:41:17;;;;;;;13.43;6.23;;;;;;;5.28;100.00;101395.38;6047864;28;20064;-73
2023/12/19 06:44:13;;;;;;;13.15;6.35;;;;;;;5.30;100.00;101382.97;6034050;28;20066;-73
2023/12/19 06:47:08;;;;;;;19.75;6.40;;;;;;;5.32;100.00;101392.47;6030508;28;20088;-73
2023/12/19 06:50:03;;;;;;;13.33;6.07;;;;;;;5.28;100.00;101376.97;6030361;28;21253;-73
2023/12/19 06:53:00;;;;;;;15.82;6.22;;;;;;;5.29;100.00;101371.63;6025743;28;20352;-73
2023/12/19 06:55:55;;;;;;;13.52;6.28;;;;;;;5.38;100.00;101388.63;6025749;28;20044;-73
2023/12/19 06:58:51;;;;;;;13.90;6.77;;;;;;;5.31;100.00;101368.88;6028988;28;20026;-73
2023/12/19 07:01:46;;;;;;;13.52;6.05;;;;;;;5.39;100.00;101390.28;6025567;28;20037;-73
2023/12/19 07:04:41;;;;;;;11.50;6.07;;;;;;;5.38;100.00;101396.50;6027849;28;20041;-73
2023/12/19 07:07:37;;;;;;;13.80;6.00;;;;;;;5.31;100.00;101389.91;6025526;28;20079;-73
2023/12/19 07:10:36;;;;;;;13.70;5.87;;;;;;;5.34;100.00;101390.59;6024403;28;20367;-73
2023/12/19 07:13:32;;;;;;;12.57;6.00;;;;;;;5.28;100.00;101400.63;6021993;28;20038;-73
2023/12/19 07:16:27;;;;;;;13.30;6.43;;;;;;;5.30;100.00;101390.84;6026276;28;20108;-73
2023/12/19 07:19:23;;;;;;;13.40;6.20;;;;;;;5.29;100.00;101397.91;6039041;28;20067;-73
2023/12/19 07:22:18;;;;;;;15.40;6.32;;;;;;;5.29;100.00;101407.59;6028463;28;20034;-73
2023/12/19 07:25:14;;;;;;;12.93;5.75;;;;;;;5.23;100.00;101407.97;6028460;28;20026;-72
2023/12/19 07:28:09;;;;;;;14.38;6.05;;;;;;;5.22;100.00;101401.00;6026094;28;20434;-73
2023/12/19 07:31:04;;;;;;;15.70;7.53;;;;;;;5.21;100.00;101388.81;6037913;28;20040;-73
2023/12/19 07:34:05;;;;;;;20.60;7.40;;;;;;;5.15;100.00;101400.56;6035802;28;20285;-72
2023/12/19 07:37:01;;;;;;;19.20;6.82;;;;;;;5.08;100.00;101385.25;6015950;28;20306;-71
2023/12/19 07:39:57;;;;;;;18.77;7.30;;;;;;;5.07;100.00;101396.69;6042924;28;20034;-74
2023/12/19 07:42:52;;;;;;;17.35;7.50;;;;;;;5.05;100.00;101401.22;6033393;28;20100;-72
2023/12/19 07:45:47;;;;;;;20.60;8.03;;;;;;;4.98;100.00;101390.22;6039742;28;20040;-75
2023/12/19 07:48:43;;;;;;;14.97;7.03;;;;;;;5.02;100.00;101396.13;6038228;28;20030;-70
2023/12/19 07:51:38;;;;;;;18.40;7.67;;;;;;;4.90;100.00;101386.38;6030334;28;20404;-72
2023/12/19 07:54:33;;;;;;;20.50;8.45;;;;;;;4.90;100.00;101374.06;6027012;28;20034;-72
2023/12/19 07:57:29;;;;;;;20.20;8.40;;;;;;;4.87;100.00;101374.25;6040898;28;20113;-72
2023/12/19 08:00:24;;;;;;;18.10;7.75;;;;;;;4.88;100.00;101364.59;6040967;28;20076;-73
2023/12/19 08:03:19;;;;;;;18.90;7.37;;;;;;;4.91;100.00;101356.53;6031133;28;20034;-72
2023/12/19 08:06:15;;;;;;;18.93;8.00;;;;;;;4.90;100.00;101349.56;6031727;28;20026;-72
2023/12/19 08:09:11;;;;;;;18.45;8.20;;;;;;;4.88;100.00;101351.47;6036493;28;20135;-73
2023/12/19 08:12:06;;;;;;;20.70;8.75;;;;;;;4.91;100.00;101354.75;6034078;28;20084;-73
2023/12/19 08:15:02;;;;;;;18.63;9.18;;;;;;;4.82;100.00;101358.78;6029315;28;20470;-73
2023/12/19 08:17:57;;;;;;;27.77;10.43;;;;;;;4.85;100.00;101349.03;6028903;28;20054;-71
2023/12/19 08:20:52;;;;;;;23.73;9.67;;;;;;;4.77;100.00;101334.59;6032023;28;20041;-72
2023/12/19 08:23:48;;;;;;;24.93;10.30;;;;;;;4.84;100.00;101339.47;6032329;28;20038;-71
2023/12/19 08:26:50;;;;;;;24.73;11.48;;;;;;;4.82;100.00;101334.28;6030029;28;20034;-71
2023/12/19 08:29:45;;;;;;;28.65;11.68;;;;;;;4.76;100.00;101305.75;6035159;28;20557;-72
2023/12/19 08:32:40;;;;;;;31.27;10.23;;;;;;;4.78;100.00;101307.34;6026755;28;20026;-71
2023/12/19 08:35:36;;;;;;;30.47;11.83;;;;;;;4.75;100.00;101307.56;6029709;28;20076;-72
2023/12/19 08:38:31;;;;;;;30.70;10.97;;;;;;;4.81;100.00;101293.19;6037688;28;20034;-71
2023/12/19 08:41:26;;;;;;;25.53;10.17;;;;;;;4.82;100.00;101285.22;6033315;28;20265;-72
2023/12/19 08:44:21;;;;;;;23.48;10.02;;;;;;;4.87;100.00;101289.31;6016822;28;20039;-71
2023/12/19 08:47:17;;;;;;;22.40;8.57;;;;;;;4.96;100.00;101296.66;6038791;28;20037;-72
2023/12/19 08:50:13;;;;;;;24.83;9.45;;;;;;;4.96;100.00;101291.41;6026402;28;20080;-72
2023/12/19 08:53:08;;;;;;;24.75;9.45;;;;;;;4.95;100.00;101294.94;6028313;28;20026;-71
2023/12/19 08:56:04;;;;;;;26.63;10.27;;;;;;;4.92;100.00;101288.09;6018188;28;20039;-72
2023/12/19 08:59:00;;;;;;;22.98;9.32;;;;;;;5.00;100.00;101285.03;6026784;28;20117;-71
2023/12/19 09:01:55;;;;;;;22.17;9.18;;;;;;;5.04;100.00;101281.25;6026628;28;20117;-71
2023/12/19 09:04:51;;;;;;;23.40;9.43;;;;;;;4.94;100.00;101248.59;6025303;28;20044;-72
2023/12/19 09:07:49;;;;;;;20.37;7.97;;;;;;;5.06;100.00;101267.06;6024633;28;20037;-72
2023/12/19 09:10:45;;;;;;;19.55;8.77;;;;;;;5.13;100.00;101259.66;6022629;28;20034;-72
2023/12/19 09:13:40;;;;;;;17.88;7.53;;;;;;;5.15;100.00;101253.34;6030941;28;20161;-73
2023/12/19 09:16:36;;;;;;;19.63;7.33;;;;;;;5.25;100.00;101269.34;6022709;28;20499;-71
2023/12/19 09:19:34;;;;;;;16.63;6.73;;;;;;;5.21;100.00;101254.75;6032122;28;20261;-72
2023/12/19 09:22:30;;;;;;;17.67;6.65;;;;;;;5.22;100.00;101251.16;6033033;28;20084;-71
2023/12/19 09:25:25;;;;;;;14.10;6.20;;;;;;;5.24;100.00;101260.66;6030961;28;20121;-71
2023/12/19 09:28:23;;;;;;;15.47;6.47;;;;;;;5.33;100.00;101264.44;6014660;28;20037;-71
2023/12/19 09:31:19;;;;;;;13.90;6.15;;;;;;;5.29;100.00;101260.34;6039331;28;20042;-72
2023/12/19 09:34:14;;;;;;;17.50;6.80;;;;;;;5.34;100.00;101248.59;6034743;28;20099;-73
2023/12/19 09:37:09;;;;;;;16.63;5.77;;;;;;;5.45;100.00;101240.00;6026808;28;20277;-72
2023/12/19 09:40:19;;;;;;;11.53;5.10;;;;;;;5.49;100.00;101236.19;6035415;28;20049;-71
2023/12/19 09:43:14;;;;;;;8.88;4.28;;;;;;;5.54;100.00;101231.50;6022669;28;20026;-70
2023/12/19 09:46:11;;;;;;;11.00;4.87;;;;;;;5.58;100.00;101218.97;6035489;28;20046;-70
2023/12/19 09:49:09;;;;;;;9.88;4.53;;;;;;;5.66;100.00;101211.41;6041737;28;20108;-71
2023/12/19 09:52:05;;;;;;;9.80;4.63;;;;;;;5.75;100.00;101209.03;6021297;28;20062;-72
2023/12/19 09:55:03;;;;;;;9.15;4.00;;;;;;;5.75;100.00;101200.28;6028208;28;20481;-73
2023/12/19 09:57:59;;;;;;;5.95;3.60;;;;;;;5.82;100.00;101205.03;6035797;28;20042;-71
2023/12/19 10:00:57;;;;;;;8.15;3.75;;;;;;;5.83;100.00;101200.63;6048031;28;20049;-71
2023/12/19 10:03:55;;;;;;;6.15;3.67;;;;;;;5.85;100.00;101199.59;6027753;28;20070;-72
2023/12/19 10:06:54;;;;;;;7.80;3.28;;;;;;;5.79;100.00;101192.06;6034773;28;20392;-72
2023/12/19 10:09:56;;;;;;;6.70;3.38;;;;;;;5.94;100.00;101191.09;6038315;28;20068;-72
2023/12/19 10:12:52;;;;;;;6.95;3.20;;;;;;;5.84;100.00;101174.19;6032048;28;20034;-72
2023/12/19 10:15:58;;;;;;;7.87;4.13;;;;;;;5.91;100.00;101193.91;6022997;28;20038;-72
2023/12/19 10:18:55;;;;;;;6.10;3.25;;;;;;;5.89;100.00;101182.66;6028152;28;20030;-71
2023/12/19 10:22:04;;;;;;;6.38;2.92;;;;;;;5.92;100.00;101176.34;6030816;28;20524;-73
2023/12/19 10:25:00;;;;;;;8.13;3.50;;;;;;;5.93;100.00;101157.81;6025402;28;20088;-73
2023/12/19 10:28:07;;;;;;;6.93;3.30;;;;;;;5.95;100.00;101150.63;6035569;28;20041;-73
2023/12/19 10:31:05;;;;;;;;;;;;;;;5.96;100.00;101140.97;6023359;28;20656;-72
2023/12/19 10:34:01;;;;;;;7.47;3.05;;;;;;;5.89;100.00;101135.28;6031043;28;19955;-71
2023/12/19 10:37:08;;;;;;;5.53;2.97;;;;;;;5.89;100.00;101130.03;6021296;28;20038;-73
2023/12/19 10:40:12;;;;;;;8.15;3.90;;;;;;;5.89;100.00;101114.25;6032266;28;20043;-74
2023/12/19 10:43:07;;;;;;;7.10;2.78;;;;;;;5.89;100.00;101114.25;6032611;28;20030;-73
2023/12/19 10:46:02;;;;;;;6.97;3.47;;;;;;;5.92;100.00;101110.56;6031381;28;20030;-73
2023/12/19 10:49:03;;;;;;;6.97;3.03;;;;;;;5.89;100.00;101103.72;6036361;28;20129;-73
2023/12/19 10:52:04;;;;;;;7.22;3.20;;;;;;;5.86;100.00;101087.28;6029270;28;20307;-73
2023/12/19 10:55:06;;;;;;;5.90;2.92;;;;;;;5.87;100.00;101084.53;6027781;28;20042;-73
2023/12/19 10:58:03;;;;;;;6.55;2.67;;;;;;;5.82;100.00;101055.03;6031323;28;20066;-73
2023/12/19 11:00:59;;;;;;;5.57;2.70;;;;;;;6.04;100.00;101080.72;6030338;28;20029;-73
2023/12/19 11:03:58;;;;;;;4.35;2.10;;;;;;;6.01;100.00;101059.06;6027921;28;20026;-71
2023/12/19 11:06:56;;;;;;;4.68;2.17;;;;;;;6.12;100.00;101061.75;6027701;28;20374;-73
2023/12/19 11:09:56;;;;;;;6.00;2.47;;;;;;;6.16;100.00;101063.22;6020618;28;20033;-73
2023/12/19 11:12:52;;;;;;;3.28;1.60;;;;;;;6.18;100.00;101067.44;6030435;28;20038;-72
2023/12/19 11:15:53;;;;;;;3.40;1.63;;;;;;;6.19;100.00;101063.00;6030481;28;20066;-73
2023/12/19 11:18:54;;;;;;;4.78;1.63;;;;;;;6.24;100.00;101066.16;6042419;28;20046;-71
2023/12/19 11:22:08;;;;;;;3.53;2.00;;;;;;;6.23;100.00;101052.13;6028327;28;20038;-72
2023/12/19 11:25:20;;;;;;;5.03;1.90;;;;;;;6.24;100.00;101047.72;6029192;28;20034;-72
2023/12/19 11:28:15;;;;;;;4.13;1.58;;;;;;;6.31;100.00;101051.59;6023095;28;20065;-72
2023/12/19 11:31:33;;;;;;;2.97;1.53;;;;;;;6.31;100.00;101048.94;6021412;28;20112;-73
2023/12/19 11:34:30;;;;;;;3.17;1.90;;;;;;;6.29;100.00;101040.31;6022628;28;20959;-73
2023/12/19 11:37:26;;;;;;;5.05;1.65;;;;;;;6.27;100.00;101040.44;6029475;28;20030;-73
2023/12/19 11:40:58;;;;;;;4.23;1.47;;;;;;;6.33;100.00;101031.25;6016073;28;20034;-72
2023/12/19 11:43:53;;;;;;;3.45;1.63;;;;;;;6.25;100.00;101016.00;6024785;28;20034;-72
2023/12/19 11:47:18;;;;;;;4.07;2.10;;;;;;;6.28;100.00;101025.47;6022480;28;20100;-72
2023/12/19 11:50:39;;;;;;;4.05;2.13;;;;;;;6.26;100.00;101011.56;6022886;28;20088;-72
2023/12/19 11:53:38;;;;;;;4.35;2.35;;;;;;;6.21;100.00;100997.91;6030033;28;20052;-73
2023/12/19 11:56:34;;;;;;;4.18;2.03;;;;;;;6.23;100.00;100993.38;6023225;28;20026;-72
2023/12/19 11:59:49;;;;;;;4.87;1.83;;;;;;;6.27;100.00;100994.84;6024237;28;20069;-73
2023/12/19 12:02:45;;;;;;;4.45;2.30;;;;;;;6.26;100.00;100995.78;6018898;28;20041;-73
2023/12/19 12:05:41;;;;;;;5.57;2.17;;;;;;;6.21;100.00;100972.44;6024010;28;20100;-73
2023/12/19 12:08:37;;;;;;;5.83;2.40;;;;;;;6.26;100.00;100979.97;6025961;28;20034;-73
2023/12/19 12:11:51;;;;;;;6.65;2.75;;;;;;;6.23;100.00;100990.72;6046521;28;20045;-73
2023/12/19 12:14:46;;;;;;;4.10;2.13;;;;;;;6.22;100.00;100989.06;6013545;28;20101;-72
2023/12/19 12:17:43;;;;;;;5.27;2.43;;;;;;;6.22;100.00;100995.19;6014777;28;20026;-73
2023/12/19 12:20:39;;;;;;;5.93;2.53;;;;;;;6.18;100.00;100987.59;6022275;28;20572;-73
2023/12/19 12:23:35;;;;;;;4.60;2.10;;;;;;;6.20;100.00;100985.69;6022732;28;20037;-73
2023/12/19 12:26:30;;;;;;;4.88;2.55;;;;;;;6.21;100.00;100977.69;6015554;28;20038;-72
2023/12/19 12:29:35;;;;;;;4.30;2.47;;;;;;;6.24;100.00;100966.09;6025479;28;20023;-74
2023/12/19 12:32:30;;;;;;;4.05;2.05;;;;;;;6.26;100.00;100970.28;6022715;28;20065;-72
2023/12/19 12:35:32;;;;;;;5.88;2.40;;;;;;;6.29;100.00;100962.16;6038517;28;20057;-74
2023/12/19 12:38:27;;;;;;;3.50;1.60;;;;;;;6.31;100.00;100946.25;6021656;28;20397;-72
2023/12/19 12:41:23;;;;;;;5.53;2.03;;;;;;;6.34;100.00;100951.28;6018467;28;20065;-72
2023/12/19 12:44:18;;;;;;;4.23;1.67;;;;;;;6.34;100.00;100943.38;6029855;28;20478;-72
2023/12/19 12:47:23;;;;;;;3.03;1.57;;;;;;;6.31;100.00;100936.56;6021961;28;20281;-72
2023/12/19 12:50:19;;;;;;;3.28;1.77;;;;;;;6.32;100.00;100948.78;6025960;28;20213;-72
2023/12/19 12:53:14;;;;;;;3.70;1.80;;;;;;;6.28;100.00;100935.94;6026334;28;20046;-74
2023/12/19 12:56:16;;;;;;;4.13;1.90;;;;;;;6.26;100.00;100917.63;6029539;28;20116;-73
2023/12/19 12:59:13;;;;;;;3.45;1.65;;;;;;;6.32;100.00;100918.97;6036863;28;20053;-72
2023/12/19 13:02:09;;;;;;;3.78;1.30;;;;;;;6.36;100.00;100912.53;6033693;28;20085;-72
2023/12/19 13:05:04;;;;;;;3.90;1.63;;;;;;;6.31;100.00;100904.09;6047133;28;20034;-73
2023/12/19 13:08:00;;;;;;;4.40;1.85;;;;;;;6.41;100.00;100918.28;6039248;28;20027;-72
2023/12/19 13:10:58;;;;;;;2.77;1.50;;;;;;;6.38;100.00;100922.00;6029550;28;20324;-73
2023/12/19 13:13:54;;;;;;;4.07;1.90;;;;;;;6.37;100.00;100904.50;6029540;28;20109;-72
2023/12/19 13:16:49;;;;;;;3.25;1.80;;;;;;;6.39;100.00;100905.22;6026008;28;20038;-73
2023/12/19 13:19:45;;;;;;;3.97;1.50;;;;;;;6.42;100.00;100899.72;6033794;28;20026;-72
2023/12/19 13:22:43;;;;;;;3.53;1.93;;;;;;;6.40;100.00;100887.63;6032366;28;20049;-73
2023/12/19 13:25:41;;;;;;;3.60;1.70;;;;;;;6.38;100.00;100886.91;6022045;28;20064;-72
2023/12/19 13:28:37;;;;;;;3.13;1.75;;;;;;;6.43;100.00;100887.41;6034317;28;20430;-73
2023/12/19 13:31:32;;;;;;;6.07;1.83;;;;;;;6.44;100.00;100883.81;6028263;28;20026;-73
2023/12/19 13:34:27;;;;;;;3.33;1.83;;;;;;;6.43;100.00;100887.41;6026323;28;20037;-73